sensor_id;sensor_type;location;lat;lon;timestamp;temperature;humidity
22006;DHT22;11167;46.988;15.470;2022-08-05T00:01:24;26.00;61.80
22006;DHT22;11167;46.988;15.470;2022-08-05T00:03:25;26.00;61.80
22006;DHT22;11167;46.988;15.470;2022-08-05T00:05:27;26.00;61.80
22006;DHT22;11167;46.988;15.470;2022-08-05T00:07:28;25.90;61.70
22006;DHT22;11167;46.988;15.470;2022-08-05T00:09:29;25.90;61.70
22006;DHT22;11167;46.988;15.470;2022-08-05T00:11:30;25.90;61.80
22006;DHT22;11167;46.988;15.470;2022-08-05T00:13:35;25.80;61.70
22006;DHT22;11167;46.988;15.470;2022-08-05T00:15:37;25.80;61.70
22006;DHT22;11167;46.988;15.470;2022-08-05T00:17:38;25.80;61.80
22006;DHT22;11167;46.988;15.470;2022-08-05T00:19:39;25.80;61.70
22006;DHT22;11167;46.988;15.470;2022-08-05T00:21:40;25.80;61.80
22006;DHT22;11167;46.988;15.470;2022-08-05T00:23:45;25.70;61.70
22006;DHT22;11167;46.988;15.470;2022-08-05T00:25:46;25.70;61.70
22006;DHT22;11167;46.988;15.470;2022-08-05T00:27:47;25.70;61.80
22006;DHT22;11167;46.988;15.470;2022-08-05T00:29:48;25.60;61.70
22006;DHT22;11167;46.988;15.470;2022-08-05T00:31:49;25.60;61.70
22006;DHT22;11167;46.988;15.470;2022-08-05T00:33:50;25.60;61.80
22006;DHT22;11167;46.988;15.470;2022-08-05T00:35:51;25.50;61.70
22006;DHT22;11167;46.988;15.470;2022-08-05T00:38:12;25.50;61.80
22006;DHT22;11167;46.988;15.470;2022-08-05T00:40:16;24.80;61.20
22006;DHT22;11167;46.988;15.470;2022-08-05T00:42:33;25.40;61.80
22006;DHT22;11167;46.988;15.470;2022-08-05T00:44:35;25.40;61.70
22006;DHT22;11167;46.988;15.470;2022-08-05T00:46:36;25.30;61.70
22006;DHT22;11167;46.988;15.470;2022-08-05T00:48:37;25.30;61.70
22006;DHT22;11167;46.988;15.470;2022-08-05T00:50:40;25.30;61.70
22006;DHT22;11167;46.988;15.470;2022-08-05T00:52:42;25.30;61.80
22006;DHT22;11167;46.988;15.470;2022-08-05T00:54:43;25.20;61.60
22006;DHT22;11167;46.988;15.470;2022-08-05T00:56:44;25.20;61.60
22006;DHT22;11167;46.988;15.470;2022-08-05T00:58:45;25.20;61.60
22006;DHT22;11167;46.988;15.470;2022-08-05T01:00:46;25.20;61.60
22006;DHT22;11167;46.988;15.470;2022-08-05T01:02:48;25.10;61.60
22006;DHT22;11167;46.988;15.470;2022-08-05T01:04:49;25.10;61.70
22006;DHT22;11167;46.988;15.470;2022-08-05T01:06:50;25.10;61.60
22006;DHT22;11167;46.988;15.470;2022-08-05T01:08:51;25.00;61.60
22006;DHT22;11167;46.988;15.470;2022-08-05T01:11:02;25.00;61.60
22006;DHT22;11167;46.988;15.470;2022-08-05T01:13:21;25.00;61.60
22006;DHT22;11167;46.988;15.470;2022-08-05T01:15:26;25.00;61.70
22006;DHT22;11167;46.988;15.470;2022-08-05T01:17:45;25.00;61.70
22006;DHT22;11167;46.988;15.470;2022-08-05T01:24:58;24.80;61.70
22006;DHT22;11167;46.988;15.470;2022-08-05T01:27:06;24.80;61.70
22006;DHT22;11167;46.988;15.470;2022-08-05T01:29:39;24.80;61.80
22006;DHT22;11167;46.988;15.470;2022-08-05T01:31:44;24.70;61.70
22006;DHT22;11167;46.988;15.470;2022-08-05T01:33:55;24.70;61.80
22006;DHT22;11167;46.988;15.470;2022-08-05T01:35:58;24.60;61.80
22006;DHT22;11167;46.988;15.470;2022-08-05T01:38:01;24.60;61.90
22006;DHT22;11167;46.988;15.470;2022-08-05T01:40:04;24.60;61.90
22006;DHT22;11167;46.988;15.470;2022-08-05T01:42:07;24.60;61.80
22006;DHT22;11167;46.988;15.470;2022-08-05T01:44:09;24.60;61.90
22006;DHT22;11167;46.988;15.470;2022-08-05T01:46:12;24.50;61.90
22006;DHT22;11167;46.988;15.470;2022-08-05T01:48:15;24.50;61.80
22006;DHT22;11167;46.988;15.470;2022-08-05T01:50:23;24.50;61.80
22006;DHT22;11167;46.988;15.470;2022-08-05T01:52:22;24.50;62.60
22006;DHT22;11167;46.988;15.470;2022-08-05T01:54:31;24.40;61.80
22006;DHT22;11167;46.988;15.470;2022-08-05T01:56:34;24.40;61.80
22006;DHT22;11167;46.988;15.470;2022-08-05T01:58:37;24.40;61.90
22006;DHT22;11167;46.988;15.470;2022-08-05T02:00:41;24.40;61.90
22006;DHT22;11167;46.988;15.470;2022-08-05T02:02:47;24.40;61.90
22006;DHT22;11167;46.988;15.470;2022-08-05T02:04:49;24.30;61.80
22006;DHT22;11167;46.988;15.470;2022-08-05T02:06:51;24.30;61.90
22006;DHT22;11167;46.988;15.470;2022-08-05T02:08:53;24.30;61.90
22006;DHT22;11167;46.988;15.470;2022-08-05T02:10:58;24.20;61.80
22006;DHT22;11167;46.988;15.470;2022-08-05T02:13:06;24.20;61.80
22006;DHT22;11167;46.988;15.470;2022-08-05T02:15:07;24.20;61.90
22006;DHT22;11167;46.988;15.470;2022-08-05T02:17:11;24.20;61.90
22006;DHT22;11167;46.988;15.470;2022-08-05T02:21:38;24.10;62.00
22006;DHT22;11167;46.988;15.470;2022-08-05T02:23:43;24.10;62.00
22006;DHT22;11167;46.988;15.470;2022-08-05T02:25:45;24.10;62.00
22006;DHT22;11167;46.988;15.470;2022-08-05T02:27:48;24.00;62.00
22006;DHT22;11167;46.988;15.470;2022-08-05T02:29:51;24.00;61.90
22006;DHT22;11167;46.988;15.470;2022-08-05T02:31:56;24.00;62.00
22006;DHT22;11167;46.988;15.470;2022-08-05T02:34:00;24.00;62.00
22006;DHT22;11167;46.988;15.470;2022-08-05T02:36:04;23.90;62.00
22006;DHT22;11167;46.988;15.470;2022-08-05T02:38:05;23.90;62.00
22006;DHT22;11167;46.988;15.470;2022-08-05T02:40:09;23.90;62.80
22006;DHT22;11167;46.988;15.470;2022-08-05T02:42:10;23.90;62.10
22006;DHT22;11167;46.988;15.470;2022-08-05T02:44:12;23.80;62.00
22006;DHT22;11167;46.988;15.470;2022-08-05T02:46:17;23.80;62.10
22006;DHT22;11167;46.988;15.470;2022-08-05T02:48:24;23.80;62.00
22006;DHT22;11167;46.988;15.470;2022-08-05T02:50:26;23.80;62.10
22006;DHT22;11167;46.988;15.470;2022-08-05T02:52:28;23.70;62.00
22006;DHT22;11167;46.988;15.470;2022-08-05T02:54:31;23.70;62.00
22006;DHT22;11167;46.988;15.470;2022-08-05T02:56:34;23.70;62.10
22006;DHT22;11167;46.988;15.470;2022-08-05T02:58:38;23.70;62.10
22006;DHT22;11167;46.988;15.470;2022-08-05T03:00:41;23.70;62.10
22006;DHT22;11167;46.988;15.470;2022-08-05T03:02:44;23.70;62.20
22006;DHT22;11167;46.988;15.470;2022-08-05T03:04:48;23.60;62.10
22006;DHT22;11167;46.988;15.470;2022-08-05T03:06:50;23.60;62.10
22006;DHT22;11167;46.988;15.470;2022-08-05T03:08:52;23.60;62.10
22006;DHT22;11167;46.988;15.470;2022-08-05T03:10:53;23.60;62.20
22006;DHT22;11167;46.988;15.470;2022-08-05T03:12:54;23.50;62.10
22006;DHT22;11167;46.988;15.470;2022-08-05T03:14:56;23.50;61.50
22006;DHT22;11167;46.988;15.470;2022-08-05T03:16:57;23.50;62.20
22006;DHT22;11167;46.988;15.470;2022-08-05T03:19:01;23.50;62.20
22006;DHT22;11167;46.988;15.470;2022-08-05T03:21:03;23.40;62.10
22006;DHT22;11167;46.988;15.470;2022-08-05T03:23:06;23.40;62.20
22006;DHT22;11167;46.988;15.470;2022-08-05T03:25:08;23.40;62.20
22006;DHT22;11167;46.988;15.470;2022-08-05T03:27:10;23.40;62.20
22006;DHT22;11167;46.988;15.470;2022-08-05T03:29:12;23.30;62.20
22006;DHT22;11167;46.988;15.470;2022-08-05T03:31:13;23.30;62.20
22006;DHT22;11167;46.988;15.470;2022-08-05T03:33:15;23.30;62.20
22006;DHT22;11167;46.988;15.470;2022-08-05T03:35:16;23.30;62.20
22006;DHT22;11167;46.988;15.470;2022-08-05T03:37:18;23.30;62.30
22006;DHT22;11167;46.988;15.470;2022-08-05T03:39:20;23.30;62.30
22006;DHT22;11167;46.988;15.470;2022-08-05T03:41:21;23.20;62.30
22006;DHT22;11167;46.988;15.470;2022-08-05T03:43:23;23.20;62.40
22006;DHT22;11167;46.988;15.470;2022-08-05T03:45:28;23.20;62.30
22006;DHT22;11167;46.988;15.470;2022-08-05T03:47:29;23.10;62.30
22006;DHT22;11167;46.988;15.470;2022-08-05T03:49:30;23.10;62.30
22006;DHT22;11167;46.988;15.470;2022-08-05T03:51:38;23.10;62.50
22006;DHT22;11167;46.988;15.470;2022-08-05T03:53:43;23.10;62.40
22006;DHT22;11167;46.988;15.470;2022-08-05T03:55:49;23.10;62.30
22006;DHT22;11167;46.988;15.470;2022-08-05T03:57:50;23.10;62.40
22006;DHT22;11167;46.988;15.470;2022-08-05T04:00:03;23.00;62.40
22006;DHT22;11167;46.988;15.470;2022-08-05T04:02:01;23.00;62.30
22006;DHT22;11167;46.988;15.470;2022-08-05T04:04:03;23.00;62.40
22006;DHT22;11167;46.988;15.470;2022-08-05T04:06:05;23.00;62.40
22006;DHT22;11167;46.988;15.470;2022-08-05T04:08:09;23.00;62.50
22006;DHT22;11167;46.988;15.470;2022-08-05T04:10:10;22.90;62.40
22006;DHT22;11167;46.988;15.470;2022-08-05T04:12:12;22.90;62.50
22006;DHT22;11167;46.988;15.470;2022-08-05T04:14:14;22.90;62.50
22006;DHT22;11167;46.988;15.470;2022-08-05T04:16:15;22.90;62.50
22006;DHT22;11167;46.988;15.470;2022-08-05T04:18:16;22.90;62.50
22006;DHT22;11167;46.988;15.470;2022-08-05T04:20:22;22.90;62.50
22006;DHT22;11167;46.988;15.470;2022-08-05T04:22:23;22.80;63.30
22006;DHT22;11167;46.988;15.470;2022-08-05T04:24:24;22.80;62.50
22006;DHT22;11167;46.988;15.470;2022-08-05T04:26:25;22.80;62.50
22006;DHT22;11167;46.988;15.470;2022-08-05T04:28:26;22.80;62.70
22006;DHT22;11167;46.988;15.470;2022-08-05T04:30:28;22.80;62.50
22006;DHT22;11167;46.988;15.470;2022-08-05T04:32:29;22.80;62.70
22006;DHT22;11167;46.988;15.470;2022-08-05T04:34:30;24.00;63.30
22006;DHT22;11167;46.988;15.470;2022-08-05T04:36:31;22.70;62.70
22006;DHT22;11167;46.988;15.470;2022-08-05T04:38:32;22.70;62.50
22006;DHT22;11167;46.988;15.470;2022-08-05T04:40:39;22.70;62.60
22006;DHT22;11167;46.988;15.470;2022-08-05T04:42:37;22.70;62.60
22006;DHT22;11167;46.988;15.470;2022-08-05T04:44:38;22.70;62.60
22006;DHT22;11167;46.988;15.470;2022-08-05T04:46:39;22.60;62.60
22006;DHT22;11167;46.988;15.470;2022-08-05T04:48:40;22.60;62.50
22006;DHT22;11167;46.988;15.470;2022-08-05T04:50:47;22.60;62.80
22006;DHT22;11167;46.988;15.470;2022-08-05T04:52:46;22.30;62.50
22006;DHT22;11167;46.988;15.470;2022-08-05T04:55:07;22.60;62.70
22006;DHT22;11167;46.988;15.470;2022-08-05T04:57:08;22.50;62.60
22006;DHT22;11167;46.988;15.470;2022-08-05T04:59:09;22.60;62.70
22006;DHT22;11167;46.988;15.470;2022-08-05T05:01:11;22.60;62.70
22006;DHT22;11167;46.988;15.470;2022-08-05T05:03:12;22.60;62.70
22006;DHT22;11167;46.988;15.470;2022-08-05T05:05:13;22.50;62.70
22006;DHT22;11167;46.988;15.470;2022-08-05T05:07:15;22.50;62.70
22006;DHT22;11167;46.988;15.470;2022-08-05T05:09:17;22.50;62.80
22006;DHT22;11167;46.988;15.470;2022-08-05T05:11:18;22.50;62.70
22006;DHT22;11167;46.988;15.470;2022-08-05T05:13:19;22.50;62.80
22006;DHT22;11167;46.988;15.470;2022-08-05T05:15:20;22.50;62.90
22006;DHT22;11167;46.988;15.470;2022-08-05T05:17:21;22.50;62.80
22006;DHT22;11167;46.988;15.470;2022-08-05T05:19:22;22.50;62.80
22006;DHT22;11167;46.988;15.470;2022-08-05T05:21:24;22.50;62.80
22006;DHT22;11167;46.988;15.470;2022-08-05T05:23:25;22.50;63.00
22006;DHT22;11167;46.988;15.470;2022-08-05T05:25:26;22.40;63.00
22006;DHT22;11167;46.988;15.470;2022-08-05T05:27:29;22.50;63.00
22006;DHT22;11167;46.988;15.470;2022-08-05T05:29:31;22.40;62.90
22006;DHT22;11167;46.988;15.470;2022-08-05T05:31:32;22.40;62.90
22006;DHT22;11167;46.988;15.470;2022-08-05T05:33:33;22.40;62.90
22006;DHT22;11167;46.988;15.470;2022-08-05T05:35:34;22.40;63.00
22006;DHT22;11167;46.988;15.470;2022-08-05T05:37:49;22.40;63.00
22006;DHT22;11167;46.988;15.470;2022-08-05T05:39:51;22.40;63.00
22006;DHT22;11167;46.988;15.470;2022-08-05T05:41:52;22.40;63.00
22006;DHT22;11167;46.988;15.470;2022-08-05T05:43:53;22.40;63.00
22006;DHT22;11167;46.988;15.470;2022-08-05T05:45:54;22.40;63.20
22006;DHT22;11167;46.988;15.470;2022-08-05T05:47:58;22.40;63.00
22006;DHT22;11167;46.988;15.470;2022-08-05T05:49:59;22.40;63.00
22006;DHT22;11167;46.988;15.470;2022-08-05T05:52:00;22.40;63.30
22006;DHT22;11167;46.988;15.470;2022-08-05T05:54:02;22.40;63.20
22006;DHT22;11167;46.988;15.470;2022-08-05T05:56:03;22.40;63.00
22006;DHT22;11167;46.988;15.470;2022-08-05T05:58:05;22.40;63.10
22006;DHT22;11167;46.988;15.470;2022-08-05T06:00:09;22.40;63.10
22006;DHT22;11167;46.988;15.470;2022-08-05T06:02:10;22.40;63.90
22006;DHT22;11167;46.988;15.470;2022-08-05T06:04:12;22.40;63.10
22006;DHT22;11167;46.988;15.470;2022-08-05T06:06:13;22.40;62.70
22006;DHT22;11167;46.988;15.470;2022-08-05T06:08:15;22.40;63.10
22006;DHT22;11167;46.988;15.470;2022-08-05T06:10:17;22.40;63.10
22006;DHT22;11167;46.988;15.470;2022-08-05T06:12:18;22.40;63.20
22006;DHT22;11167;46.988;15.470;2022-08-05T06:14:19;22.40;63.10
22006;DHT22;11167;46.988;15.470;2022-08-05T06:16:20;22.40;63.20
22006;DHT22;11167;46.988;15.470;2022-08-05T06:18:21;22.40;63.20
22006;DHT22;11167;46.988;15.470;2022-08-05T06:20:22;22.40;63.20
22006;DHT22;11167;46.988;15.470;2022-08-05T06:22:26;22.40;63.20
22006;DHT22;11167;46.988;15.470;2022-08-05T06:24:27;22.40;63.30
22006;DHT22;11167;46.988;15.470;2022-08-05T06:26:28;22.40;63.20
22006;DHT22;11167;46.988;15.470;2022-08-05T06:28:30;22.40;63.20
22006;DHT22;11167;46.988;15.470;2022-08-05T06:30:31;22.40;63.20
22006;DHT22;11167;46.988;15.470;2022-08-05T06:32:32;21.90;62.90
22006;DHT22;11167;46.988;15.470;2022-08-05T06:34:33;22.40;63.30
22006;DHT22;11167;46.988;15.470;2022-08-05T06:36:34;22.40;63.30
22006;DHT22;11167;46.988;15.470;2022-08-05T06:38:35;22.40;63.20
22006;DHT22;11167;46.988;15.470;2022-08-05T06:40:37;22.40;63.30
22006;DHT22;11167;46.988;15.470;2022-08-05T06:42:38;22.40;63.30
22006;DHT22;11167;46.988;15.470;2022-08-05T06:44:39;22.40;63.30
22006;DHT22;11167;46.988;15.470;2022-08-05T06:46:40;22.50;63.30
22006;DHT22;11167;46.988;15.470;2022-08-05T06:48:41;22.50;63.40
22006;DHT22;11167;46.988;15.470;2022-08-05T06:50:42;22.50;63.40
22006;DHT22;11167;46.988;15.470;2022-08-05T06:52:43;22.50;63.40
22006;DHT22;11167;46.988;15.470;2022-08-05T06:54:45;22.50;63.40
22006;DHT22;11167;46.988;15.470;2022-08-05T06:56:46;22.50;63.40
22006;DHT22;11167;46.988;15.470;2022-08-05T06:58:47;22.50;63.40
22006;DHT22;11167;46.988;15.470;2022-08-05T07:00:48;22.50;63.40
22006;DHT22;11167;46.988;15.470;2022-08-05T07:02:49;22.60;64.40
22006;DHT22;11167;46.988;15.470;2022-08-05T07:04:50;22.60;63.50
22006;DHT22;11167;46.988;15.470;2022-08-05T07:06:55;22.60;63.50
22006;DHT22;11167;46.988;15.470;2022-08-05T07:08:56;22.60;63.60
22006;DHT22;11167;46.988;15.470;2022-08-05T07:10:57;22.60;63.10
22006;DHT22;11167;46.988;15.470;2022-08-05T07:12:58;22.60;63.20
22006;DHT22;11167;46.988;15.470;2022-08-05T07:15:19;22.60;63.60
22006;DHT22;11167;46.988;15.470;2022-08-05T07:17:39;22.70;63.60
22006;DHT22;11167;46.988;15.470;2022-08-05T07:19:40;22.70;63.70
22006;DHT22;11167;46.988;15.470;2022-08-05T07:21:41;22.70;63.80
22006;DHT22;11167;46.988;15.470;2022-08-05T07:23:43;22.70;63.60
22006;DHT22;11167;46.988;15.470;2022-08-05T07:25:44;22.70;63.70
22006;DHT22;11167;46.988;15.470;2022-08-05T07:27:45;22.70;63.70
22006;DHT22;11167;46.988;15.470;2022-08-05T07:29:46;22.70;63.70
22006;DHT22;11167;46.988;15.470;2022-08-05T07:31:47;22.80;63.80
22006;DHT22;11167;46.988;15.470;2022-08-05T07:33:48;22.80;63.90
22006;DHT22;11167;46.988;15.470;2022-08-05T07:35:50;22.80;63.80
22006;DHT22;11167;46.988;15.470;2022-08-05T07:37:51;22.80;63.80
22006;DHT22;11167;46.988;15.470;2022-08-05T07:39:52;22.90;64.80
22006;DHT22;11167;46.988;15.470;2022-08-05T07:41:53;22.90;63.90
22006;DHT22;11167;46.988;15.470;2022-08-05T07:43:56;22.90;64.00
22006;DHT22;11167;46.988;15.470;2022-08-05T07:45:57;22.90;64.00
22006;DHT22;11167;46.988;15.470;2022-08-05T07:47:59;23.00;64.00
22006;DHT22;11167;46.988;15.470;2022-08-05T07:50:00;23.00;64.00
22006;DHT22;11167;46.988;15.470;2022-08-05T07:52:01;23.00;64.10
22006;DHT22;11167;46.988;15.470;2022-08-05T07:54:02;23.00;64.20
22006;DHT22;11167;46.988;15.470;2022-08-05T07:56:04;23.10;64.20
22006;DHT22;11167;46.988;15.470;2022-08-05T07:58:05;23.10;64.20
22006;DHT22;11167;46.988;15.470;2022-08-05T08:00:07;23.10;64.20
22006;DHT22;11167;46.988;15.470;2022-08-05T08:02:09;23.10;64.20
22006;DHT22;11167;46.988;15.470;2022-08-05T08:04:10;23.10;64.30
22006;DHT22;11167;46.988;15.470;2022-08-05T08:06:11;23.20;64.30
22006;DHT22;11167;46.988;15.470;2022-08-05T08:08:13;23.20;64.30
22006;DHT22;11167;46.988;15.470;2022-08-05T08:10:14;23.20;64.30
22006;DHT22;11167;46.988;15.470;2022-08-05T08:12:15;23.30;64.40
22006;DHT22;11167;46.988;15.470;2022-08-05T08:14:16;23.30;64.40
22006;DHT22;11167;46.988;15.470;2022-08-05T08:16:18;23.30;64.50
22006;DHT22;11167;46.988;15.470;2022-08-05T08:18:19;23.30;64.40
22006;DHT22;11167;46.988;15.470;2022-08-05T08:20:21;23.40;64.50
22006;DHT22;11167;46.988;15.470;2022-08-05T08:22:26;23.40;64.50
22006;DHT22;11167;46.988;15.470;2022-08-05T08:24:28;23.40;64.50
22006;DHT22;11167;46.988;15.470;2022-08-05T08:26:30;23.50;64.60
22006;DHT22;11167;46.988;15.470;2022-08-05T08:28:31;23.50;64.60
22006;DHT22;11167;46.988;15.470;2022-08-05T08:30:33;23.50;64.60
22006;DHT22;11167;46.988;15.470;2022-08-05T08:32:34;23.60;64.70
22006;DHT22;11167;46.988;15.470;2022-08-05T08:34:36;23.60;64.70
22006;DHT22;11167;46.988;15.470;2022-08-05T08:36:37;23.60;64.70
22006;DHT22;11167;46.988;15.470;2022-08-05T08:38:38;23.70;64.70
22006;DHT22;11167;46.988;15.470;2022-08-05T08:40:39;23.70;64.80
22006;DHT22;11167;46.988;15.470;2022-08-05T08:42:43;23.70;64.90
22006;DHT22;11167;46.988;15.470;2022-08-05T08:44:45;23.70;64.80
22006;DHT22;11167;46.988;15.470;2022-08-05T08:46:46;23.80;64.90
22006;DHT22;11167;46.988;15.470;2022-08-05T08:48:48;23.80;64.90
22006;DHT22;11167;46.988;15.470;2022-08-05T08:51:10;23.80;64.90
22006;DHT22;11167;46.988;15.470;2022-08-05T08:53:14;22.70;64.20
22006;DHT22;11167;46.988;15.470;2022-08-05T08:55:16;23.90;64.90
22006;DHT22;11167;46.988;15.470;2022-08-05T08:57:17;24.00;65.00
22006;DHT22;11167;46.988;15.470;2022-08-05T08:59:19;24.00;65.10
22006;DHT22;11167;46.988;15.470;2022-08-05T09:01:20;24.00;65.00
22006;DHT22;11167;46.988;15.470;2022-08-05T09:03:23;24.10;65.10
22006;DHT22;11167;46.988;15.470;2022-08-05T09:05:24;24.10;65.90
22006;DHT22;11167;46.988;15.470;2022-08-05T09:07:25;24.20;65.10
22006;DHT22;11167;46.988;15.470;2022-08-05T09:09:26;24.20;65.10
22006;DHT22;11167;46.988;15.470;2022-08-05T09:11:28;24.20;65.20
22006;DHT22;11167;46.988;15.470;2022-08-05T09:13:30;24.20;65.10
22006;DHT22;11167;46.988;15.470;2022-08-05T09:15:32;24.30;65.20
22006;DHT22;11167;46.988;15.470;2022-08-05T09:17:33;24.40;65.30
22006;DHT22;11167;46.988;15.470;2022-08-05T09:19:35;24.40;65.30
22006;DHT22;11167;46.988;15.470;2022-08-05T09:21:37;24.40;65.40
22006;DHT22;11167;46.988;15.470;2022-08-05T09:23:40;24.50;65.40
22006;DHT22;11167;46.988;15.470;2022-08-05T09:25:44;24.50;65.50
22006;DHT22;11167;46.988;15.470;2022-08-05T09:27:47;24.60;65.50
22006;DHT22;11167;46.988;15.470;2022-08-05T09:29:49;24.60;65.50
22006;DHT22;11167;46.988;15.470;2022-08-05T09:32:01;24.70;65.70
22006;DHT22;11167;46.988;15.470;2022-08-05T09:34:06;24.70;65.60
22006;DHT22;11167;46.988;15.470;2022-08-05T09:36:07;24.80;65.60
22006;DHT22;11167;46.988;15.470;2022-08-05T09:38:08;24.80;65.70
22006;DHT22;11167;46.988;15.470;2022-08-05T09:40:28;24.80;65.70
22006;DHT22;11167;46.988;15.470;2022-08-05T09:42:20;24.90;65.80
22006;DHT22;11167;46.988;15.470;2022-08-05T09:44:36;25.00;65.80
22006;DHT22;11167;46.988;15.470;2022-08-05T09:46:37;25.00;65.80
22006;DHT22;11167;46.988;15.470;2022-08-05T09:48:40;25.00;65.80
22006;DHT22;11167;46.988;15.470;2022-08-05T09:50:41;25.10;66.00
22006;DHT22;11167;46.988;15.470;2022-08-05T09:52:42;25.20;66.00
22006;DHT22;11167;46.988;15.470;2022-08-05T09:54:57;25.20;66.10
22006;DHT22;11167;46.988;15.470;2022-08-05T09:56:59;25.20;66.10
22006;DHT22;11167;46.988;15.470;2022-08-05T09:59:03;25.30;66.10
22006;DHT22;11167;46.988;15.470;2022-08-05T10:01:05;25.30;65.60
22006;DHT22;11167;46.988;15.470;2022-08-05T10:03:08;25.40;66.20
22006;DHT22;11167;46.988;15.470;2022-08-05T10:05:15;25.50;66.10
22006;DHT22;11167;46.988;15.470;2022-08-05T10:07:19;25.50;66.40
22006;DHT22;11167;46.988;15.470;2022-08-05T10:09:20;25.50;66.50
22006;DHT22;11167;46.988;15.470;2022-08-05T10:11:22;25.60;66.60
22006;DHT22;11167;46.988;15.470;2022-08-05T10:13:37;25.60;66.40
22006;DHT22;11167;46.988;15.470;2022-08-05T10:15:39;25.70;66.50
22006;DHT22;11167;46.988;15.470;2022-08-05T10:17:40;25.80;66.60
22006;DHT22;11167;46.988;15.470;2022-08-05T10:19:41;25.80;66.60
22006;DHT22;11167;46.988;15.470;2022-08-05T10:21:43;25.80;66.60
22006;DHT22;11167;46.988;15.470;2022-08-05T10:23:46;25.90;65.90
22006;DHT22;11167;46.988;15.470;2022-08-05T10:25:47;26.00;66.70
22006;DHT22;11167;46.988;15.470;2022-08-05T10:27:49;26.10;66.80
22006;DHT22;11167;46.988;15.470;2022-08-05T10:29:52;26.10;66.70
22006;DHT22;11167;46.988;15.470;2022-08-05T10:31:53;26.20;66.80
22006;DHT22;11167;46.988;15.470;2022-08-05T10:33:55;26.20;66.80
22006;DHT22;11167;46.988;15.470;2022-08-05T10:35:58;26.30;66.90
22006;DHT22;11167;46.988;15.470;2022-08-05T10:38:00;26.30;67.80
22006;DHT22;11167;46.988;15.470;2022-08-05T10:40:03;26.40;66.90
22006;DHT22;11167;46.988;15.470;2022-08-05T10:42:17;26.50;67.00
22006;DHT22;11167;46.988;15.470;2022-08-05T10:44:20;26.50;67.00
22006;DHT22;11167;46.988;15.470;2022-08-05T10:46:22;26.60;66.90
22006;DHT22;11167;46.988;15.470;2022-08-05T10:48:44;26.60;67.20
22006;DHT22;11167;46.988;15.470;2022-08-05T10:51:06;26.60;67.20
22006;DHT22;11167;46.988;15.470;2022-08-05T10:53:21;26.70;68.00
22006;DHT22;11167;46.988;15.470;2022-08-05T10:55:13;26.70;67.20
22006;DHT22;11167;46.988;15.470;2022-08-05T10:57:24;26.80;67.30
22006;DHT22;11167;46.988;15.470;2022-08-05T10:59:29;26.90;67.50
22006;DHT22;11167;46.988;15.470;2022-08-05T11:01:36;26.90;67.40
22006;DHT22;11167;46.988;15.470;2022-08-05T11:04:15;27.00;67.40
22006;DHT22;11167;46.988;15.470;2022-08-05T11:06:04;27.00;67.40
22006;DHT22;11167;46.988;15.470;2022-08-05T11:08:07;27.10;67.50
22006;DHT22;11167;46.988;15.470;2022-08-05T11:10:15;27.20;67.50
22006;DHT22;11167;46.988;15.470;2022-08-05T11:14:30;27.20;67.70
22006;DHT22;11167;46.988;15.470;2022-08-05T11:16:33;27.30;67.70
22006;DHT22;11167;46.988;15.470;2022-08-05T11:18:34;27.40;67.70
22006;DHT22;11167;46.988;15.470;2022-08-05T11:20:47;27.40;67.70
22006;DHT22;11167;46.988;15.470;2022-08-05T11:22:51;27.50;67.80
22006;DHT22;11167;46.988;15.470;2022-08-05T11:27:30;27.60;67.80
22006;DHT22;11167;46.988;15.470;2022-08-05T11:29:38;27.70;68.80
22006;DHT22;11167;46.988;15.470;2022-08-05T11:31:42;27.80;68.00
22006;DHT22;11167;46.988;15.470;2022-08-05T11:36:01;27.90;67.90
22006;DHT22;11167;46.988;15.470;2022-08-05T11:38:02;27.90;68.00
22006;DHT22;11167;46.988;15.470;2022-08-05T11:40:04;28.00;68.10
22006;DHT22;11167;46.988;15.470;2022-08-05T11:42:06;28.00;68.00
22006;DHT22;11167;46.988;15.470;2022-08-05T11:44:12;28.10;68.00
22006;DHT22;11167;46.988;15.470;2022-08-05T11:46:15;28.20;68.10
22006;DHT22;11167;46.988;15.470;2022-08-05T11:48:16;28.20;68.10
22006;DHT22;11167;46.988;15.470;2022-08-05T11:50:18;28.30;68.10
22006;DHT22;11167;46.988;15.470;2022-08-05T11:52:23;28.30;68.10
22006;DHT22;11167;46.988;15.470;2022-08-05T11:54:30;28.40;68.20
22006;DHT22;11167;46.988;15.470;2022-08-05T11:56:48;28.50;67.70
22006;DHT22;11167;46.988;15.470;2022-08-05T11:58:50;28.50;68.20
22006;DHT22;11167;46.988;15.470;2022-08-05T12:01:00;28.60;68.20
22006;DHT22;11167;46.988;15.470;2022-08-05T12:03:15;28.70;68.30
22006;DHT22;11167;46.988;15.470;2022-08-05T12:05:26;28.70;68.30
22006;DHT22;11167;46.988;15.470;2022-08-05T12:07:25;28.80;68.40
22006;DHT22;11167;46.988;15.470;2022-08-05T12:09:28;28.80;68.40
22006;DHT22;11167;46.988;15.470;2022-08-05T12:11:30;28.90;69.30
22006;DHT22;11167;46.988;15.470;2022-08-05T12:13:31;28.90;68.30
22006;DHT22;11167;46.988;15.470;2022-08-05T12:15:32;29.00;68.50
22006;DHT22;11167;46.988;15.470;2022-08-05T12:17:35;29.00;68.90
22006;DHT22;11167;46.988;15.470;2022-08-05T12:21:52;29.20;68.50
22006;DHT22;11167;46.988;15.470;2022-08-05T12:23:57;29.20;68.40
22006;DHT22;11167;46.988;15.470;2022-08-05T12:25:55;29.30;68.40
22006;DHT22;11167;46.988;15.470;2022-08-05T12:27:56;29.30;68.40
22006;DHT22;11167;46.988;15.470;2022-08-05T12:30:05;29.40;67.80
22006;DHT22;11167;46.988;15.470;2022-08-05T12:32:07;29.50;68.50
22006;DHT22;11167;46.988;15.470;2022-08-05T12:34:10;29.50;68.50
22006;DHT22;11167;46.988;15.470;2022-08-05T12:36:11;29.60;68.60
22006;DHT22;11167;46.988;15.470;2022-08-05T12:38:14;29.60;68.50
22006;DHT22;11167;46.988;15.470;2022-08-05T12:40:16;29.70;68.60
22006;DHT22;11167;46.988;15.470;2022-08-05T12:42:19;29.70;68.60
22006;DHT22;11167;46.988;15.470;2022-08-05T12:44:20;29.80;68.60
22006;DHT22;11167;46.988;15.470;2022-08-05T12:46:26;29.80;68.60
22006;DHT22;11167;46.988;15.470;2022-08-05T12:48:36;29.90;68.70
22006;DHT22;11167;46.988;15.470;2022-08-05T12:50:32;30.00;68.70
22006;DHT22;11167;46.988;15.470;2022-08-05T12:52:34;30.00;68.70
22006;DHT22;11167;46.988;15.470;2022-08-05T12:54:35;30.10;68.80
22006;DHT22;11167;46.988;15.470;2022-08-05T12:56:48;30.10;68.70
22006;DHT22;11167;46.988;15.470;2022-08-05T12:59:25;30.20;68.80
22006;DHT22;11167;46.988;15.470;2022-08-05T13:01:27;30.20;68.70
22006;DHT22;11167;46.988;15.470;2022-08-05T13:03:29;30.30;68.90